createdAt,value
2023-07-10T00:01:01.279Z,83.28
2023-07-10T00:03:30.343Z,83.65
2023-07-10T00:06:01.376Z,84.18
2023-07-10T00:08:28.702Z,84.68
2023-07-10T00:10:55.823Z,85.42
2023-07-10T00:13:23.380Z,85.86
2023-07-10T00:15:57.321Z,86.19
2023-07-10T00:18:24.636Z,86.30
2023-07-10T00:20:51.988Z,86.28
2023-07-10T00:23:19.092Z,85.59
2023-07-10T00:25:45.992Z,85.37
2023-07-10T00:28:18.965Z,85.07
2023-07-10T00:30:47.217Z,84.51
2023-07-10T00:33:16.273Z,83.36
2023-07-10T00:35:43.764Z,83.64
2023-07-10T00:38:24.976Z,82.85
2023-07-10T00:40:51.939Z,82.54
2023-07-10T00:43:24.806Z,82.33
2023-07-10T00:45:53.142Z,82.18
2023-07-10T00:48:42.295Z,83.00
2023-07-10T00:51:37.543Z,82.95
2023-07-10T00:54:07.221Z,83.58
2023-07-10T00:56:47.059Z,83.90
2023-07-10T00:59:23.600Z,84.27
2023-07-10T01:02:08.903Z,83.96
2023-07-10T01:04:37.106Z,84.73
2023-07-10T01:07:04.213Z,84.81
2023-07-10T01:09:31.090Z,85.07
2023-07-10T01:12:00.852Z,85.25
2023-07-10T01:14:27.607Z,84.76
2023-07-10T01:16:54.382Z,84.65
2023-07-10T01:19:24.400Z,84.59
2023-07-10T01:21:52.161Z,84.77
2023-07-10T01:24:19.016Z,84.71
2023-07-10T01:26:45.900Z,85.00
2023-07-10T01:29:28.492Z,84.88
2023-07-10T01:31:56.919Z,84.86
2023-07-10T01:34:31.642Z,84.88
2023-07-10T01:36:58.466Z,84.97
2023-07-10T01:39:35.428Z,84.97
2023-07-10T01:42:02.821Z,85.33
2023-07-10T01:44:38.707Z,85.90
2023-07-10T01:47:09.050Z,85.83
2023-07-10T01:49:43.522Z,86.03
2023-07-10T01:52:12.291Z,86.13
2023-07-10T01:54:40.023Z,86.29
2023-07-10T01:57:08.501Z,86.25
2023-07-10T01:59:35.232Z,86.41
2023-07-10T02:02:03.332Z,86.37
2023-07-10T02:04:30.256Z,86.72
2023-07-10T02:06:57.083Z,86.87
2023-07-10T02:09:25.238Z,86.80
2023-07-10T02:11:52.545Z,87.23
2023-07-10T02:14:19.600Z,87.00
2023-07-10T02:16:46.700Z,87.59
2023-07-10T02:19:14.066Z,87.52
2023-07-10T02:21:41.666Z,87.49
2023-07-10T02:24:08.670Z,87.55
2023-07-10T02:26:35.639Z,87.21
2023-07-10T02:29:02.769Z,87.11
2023-07-10T02:31:30.276Z,87.13
2023-07-10T02:33:57.347Z,86.91
2023-07-10T02:36:25.433Z,86.58
2023-07-10T02:38:52.256Z,86.36
2023-07-10T02:41:19.436Z,85.91
2023-07-10T02:43:46.160Z,86.01
2023-07-10T02:46:13.073Z,85.45
2023-07-10T02:48:39.802Z,85.65
2023-07-10T02:51:06.999Z,85.63
2023-07-10T02:53:34.144Z,85.73
2023-07-10T02:56:01.456Z,86.12
2023-07-10T02:58:28.476Z,86.01
2023-07-10T03:00:57.073Z,86.45
2023-07-10T03:03:24.574Z,86.63
2023-07-10T03:05:59.798Z,86.71
2023-07-10T03:08:27.497Z,86.78
2023-07-10T03:11:07.656Z,86.84
2023-07-10T03:13:35.195Z,87.53
2023-07-10T03:16:06.532Z,87.48
2023-07-10T03:18:33.955Z,87.37
2023-07-10T03:21:00.797Z,87.44
2023-07-10T03:23:27.938Z,87.66
2023-07-10T03:25:54.771Z,87.18
2023-07-10T03:28:21.835Z,87.26
2023-07-10T03:30:48.780Z,88.26
2023-07-10T03:33:17.552Z,88.30
2023-07-10T03:35:50.110Z,89.11
2023-07-10T03:38:17.847Z,89.73
2023-07-10T03:40:52.487Z,89.11
2023-07-10T03:43:19.278Z,88.44
2023-07-10T03:45:46.101Z,88.78
2023-07-10T03:48:12.862Z,88.34
2023-07-10T03:50:43.154Z,88.69
2023-07-10T03:53:10.148Z,88.77
2023-07-10T03:55:36.967Z,88.80
2023-07-10T03:58:16.917Z,89.71
2023-07-10T04:00:43.803Z,90.23
2023-07-10T04:03:11.475Z,90.03
2023-07-10T04:05:38.472Z,89.60
2023-07-10T04:08:05.657Z,89.78
2023-07-10T04:10:33.685Z,89.53
2023-07-10T04:13:00.658Z,89.57
2023-07-10T04:15:30.414Z,89.19
2023-07-10T04:17:57.227Z,89.31
2023-07-10T04:20:24.328Z,88.93
2023-07-10T04:22:51.010Z,88.60
2023-07-10T04:25:17.784Z,88.56
2023-07-10T04:27:44.688Z,88.17
2023-07-10T04:30:16.517Z,88.12
2023-07-10T04:32:43.428Z,87.94
2023-07-10T04:35:10.069Z,87.54
2023-07-10T04:37:36.735Z,87.39
2023-07-10T04:40:03.462Z,87.67
2023-07-10T04:42:31.084Z,87.37
2023-07-10T04:50:29.962Z,87.40
2023-07-10T04:52:59.906Z,87.00
2023-07-10T04:55:26.645Z,86.40
2023-07-10T04:57:53.339Z,84.35
2023-07-10T05:00:20.430Z,80.34
2023-07-10T05:02:47.961Z,79.20
2023-07-10T05:05:14.989Z,77.71
2023-07-10T05:07:41.628Z,74.71
2023-07-10T05:10:08.738Z,71.44
2023-07-10T05:12:35.303Z,68.94
2023-07-10T05:15:01.870Z,69.94
2023-07-10T05:17:28.760Z,71.53
2023-07-10T05:19:55.556Z,72.14
2023-07-10T05:22:30.552Z,70.71
2023-07-10T05:24:57.487Z,66.64
2023-07-10T05:27:24.135Z,67.22
2023-07-10T05:29:50.930Z,66.27
2023-07-10T05:32:17.966Z,64.00
2023-07-10T05:34:44.681Z,61.07
2023-07-10T05:37:11.780Z,58.85
2023-07-10T05:39:38.451Z,57.32
2023-07-10T05:42:05.763Z,56.30
2023-07-10T05:44:32.366Z,55.54
2023-07-10T05:46:59.033Z,58.09
2023-07-10T05:49:26.090Z,60.99
2023-07-10T05:51:53.925Z,62.27
2023-07-10T05:54:22.994Z,63.88
2023-07-10T05:56:50.866Z,65.31
2023-07-10T05:59:22.850Z,66.27
2023-07-10T06:01:50.620Z,66.14
2023-07-10T06:04:17.502Z,66.86
2023-07-10T06:06:46.001Z,68.09
2023-07-10T06:09:16.220Z,68.52
2023-07-10T06:11:42.859Z,68.13
2023-07-10T06:14:09.497Z,68.19
2023-07-10T06:16:36.285Z,67.81
2023-07-10T06:19:03.040Z,68.17
2023-07-10T06:21:29.674Z,68.97
2023-07-10T06:23:56.563Z,69.07
2023-07-10T06:26:23.258Z,68.99
2023-07-10T06:28:50.789Z,68.53
2023-07-10T06:31:18.542Z,69.28
2023-07-10T06:33:45.115Z,68.91
2023-07-10T06:36:11.817Z,67.26
2023-07-10T06:38:38.479Z,66.97
2023-07-10T06:41:07.665Z,67.35
2023-07-10T06:43:34.682Z,66.94
2023-07-10T06:46:01.422Z,66.50
2023-07-10T06:48:28.358Z,65.14
2023-07-10T06:50:57.000Z,64.89
2023-07-10T06:53:27.684Z,64.45
2023-07-10T06:56:00.326Z,63.61
2023-07-10T06:58:28.306Z,63.41
2023-07-10T07:00:55.773Z,62.01
2023-07-10T07:03:23.269Z,62.22
2023-07-10T07:05:50.218Z,61.45
2023-07-10T07:08:20.804Z,62.00
2023-07-10T07:10:49.298Z,62.35
2023-07-10T07:13:16.542Z,61.28
2023-07-10T07:15:43.855Z,61.07
2023-07-10T07:18:10.730Z,61.22
2023-07-10T07:20:37.252Z,61.58
2023-07-10T07:23:03.840Z,60.26
2023-07-10T07:25:31.332Z,60.30
2023-07-10T07:28:01.393Z,60.36
2023-07-10T07:30:32.360Z,59.60
2023-07-10T07:32:59.756Z,59.41
2023-07-10T07:35:26.908Z,58.83
2023-07-10T07:37:54.259Z,59.29
2023-07-10T07:40:21.087Z,59.56
2023-07-10T07:42:48.390Z,58.88
2023-07-10T07:45:16.142Z,56.92
2023-07-10T07:47:43.116Z,56.58
2023-07-10T07:50:10.513Z,56.25
2023-07-10T07:52:37.549Z,57.27
2023-07-10T07:55:10.190Z,56.65
2023-07-10T07:57:39.245Z,56.18
2023-07-10T08:00:08.089Z,55.44
2023-07-10T08:02:34.967Z,55.66
2023-07-10T08:05:02.951Z,55.86
2023-07-10T08:07:29.736Z,56.40
2023-07-10T08:09:56.415Z,56.22
2023-07-10T08:12:24.559Z,55.60
2023-07-10T08:14:51.205Z,54.50
2023-07-10T08:17:17.671Z,54.36
2023-07-10T08:19:44.322Z,54.87
2023-07-10T08:22:10.857Z,54.52
2023-07-10T08:24:37.463Z,54.70
2023-07-10T08:27:04.369Z,53.79
2023-07-10T08:29:35.390Z,53.71
2023-07-10T08:32:02.809Z,53.86
2023-07-10T08:34:31.590Z,53.53
2023-07-10T08:37:02.795Z,53.17
2023-07-10T08:39:29.466Z,53.48
2023-07-10T08:42:01.514Z,52.15
2023-07-10T08:44:39.100Z,51.75
2023-07-10T08:47:17.213Z,51.69
2023-07-10T08:49:55.782Z,52.50
2023-07-10T08:52:45.363Z,51.52
2023-07-10T08:55:13.949Z,51.90
2023-07-10T08:57:49.029Z,51.52
2023-07-10T09:00:16.628Z,50.74
2023-07-10T09:02:46.642Z,50.51
2023-07-10T09:05:28.175Z,50.35
2023-07-10T09:07:56.858Z,51.38
2023-07-10T09:10:32.750Z,50.96
2023-07-10T09:13:04.635Z,51.43
2023-07-10T09:15:37.576Z,50.83
2023-07-10T09:18:25.551Z,49.61
2023-07-10T09:20:58.557Z,46.84
2023-07-10T09:23:29.491Z,47.44
2023-07-10T09:25:58.384Z,48.05
2023-07-10T09:28:26.096Z,49.03
2023-07-10T09:31:20.469Z,48.88
2023-07-10T09:34:00.432Z,48.30
2023-07-10T09:36:28.740Z,48.45
2023-07-10T09:38:58.106Z,47.19
2023-07-10T09:41:29.878Z,46.30
2023-07-10T09:43:59.915Z,47.38
2023-07-10T09:46:36.924Z,47.18
2023-07-10T09:49:13.371Z,48.11
2023-07-10T09:52:02.079Z,47.05
2023-07-10T09:54:40.366Z,44.71
2023-07-10T09:57:19.347Z,45.67
2023-07-10T09:59:54.730Z,45.49
2023-07-10T10:02:34.193Z,46.15
2023-07-10T10:05:30.447Z,46.58
2023-07-10T10:08:19.954Z,46.64
2023-07-10T10:11:09.691Z,44.61
2023-07-10T10:13:58.020Z,44.21
2023-07-10T10:16:30.964Z,43.34
2023-07-10T10:19:20.567Z,44.55
2023-07-10T10:21:47.648Z,41.09
2023-07-10T10:24:14.917Z,40.61
2023-07-10T10:26:44.407Z,41.77
2023-07-10T10:29:58.663Z,42.34
2023-07-10T10:32:45.032Z,42.29
2023-07-10T10:35:38.540Z,41.87
2023-07-10T10:38:18.967Z,40.36
2023-07-10T10:41:45.207Z,40.56
2023-07-10T10:44:14.497Z,39.59
2023-07-10T10:47:31.172Z,39.59
2023-07-10T10:50:30.239Z,40.23
2023-07-10T10:53:17.475Z,39.51
2023-07-10T10:56:03.507Z,39.68
2023-07-10T10:58:56.709Z,39.93
2023-07-10T11:01:42.413Z,41.55
2023-07-10T11:04:15.027Z,41.18
2023-07-10T11:06:54.352Z,41.98
2023-07-10T11:09:32.847Z,42.86
2023-07-10T11:12:01.244Z,42.82
2023-07-10T11:14:29.180Z,42.99
2023-07-10T11:16:59.378Z,43.75
2023-07-10T11:19:29.643Z,43.14
2023-07-10T11:21:56.512Z,42.73
2023-07-10T11:24:26.121Z,42.49
2023-07-10T11:26:54.757Z,42.86
2023-07-10T11:29:37.645Z,43.55
2023-07-10T11:32:15.400Z,43.25
2023-07-10T11:35:21.926Z,43.63
2023-07-10T11:37:48.690Z,43.97
2023-07-10T11:40:46.066Z,44.13
2023-07-10T11:43:40.029Z,43.40
2023-07-10T11:46:18.908Z,43.13
2023-07-10T11:49:09.861Z,41.75
2023-07-10T11:51:36.539Z,43.10
2023-07-10T11:54:06.470Z,42.30
2023-07-10T11:56:34.184Z,42.72
2023-07-10T11:59:01.693Z,43.03
2023-07-10T12:01:28.611Z,43.98
2023-07-10T12:03:56.730Z,43.77
2023-07-10T12:06:25.826Z,42.33
2023-07-10T12:08:54.399Z,41.50
2023-07-10T12:11:37.243Z,42.42
2023-07-10T12:14:25.417Z,41.18
2023-07-10T12:17:25.790Z,40.62
2023-07-10T12:19:46.363Z,39.61
2023-07-10T12:22:23.598Z,38.35
2023-07-10T12:24:53.500Z,38.70
2023-07-10T12:29:55.436Z,37.70
2023-07-10T12:32:25.544Z,37.77
2023-07-10T12:34:54.813Z,35.62
2023-07-10T12:37:22.224Z,34.98
2023-07-10T12:39:52.209Z,36.30
2023-07-10T12:42:37.658Z,37.79
2023-07-10T12:45:16.336Z,38.71
2023-07-10T12:50:35.236Z,37.39
2023-07-10T12:53:05.838Z,37.09
2023-07-10T12:55:33.257Z,36.83
2023-07-10T12:58:01.932Z,36.38
2023-07-10T13:01:01.811Z,37.50
2023-07-10T13:03:37.726Z,37.19
2023-07-10T13:06:08.607Z,37.20
2023-07-10T13:08:41.830Z,36.25
2023-07-10T13:11:35.795Z,35.32
2023-07-10T13:16:44.164Z,35.92
2023-07-10T13:19:10.764Z,35.37
2023-07-10T13:21:37.341Z,36.22
2023-07-10T13:24:04.176Z,36.41
2023-07-10T13:26:30.774Z,37.13
2023-07-10T13:28:57.291Z,38.12
2023-07-10T13:31:29.367Z,38.22
2023-07-10T13:33:56.062Z,37.29
2023-07-10T13:36:25.806Z,35.17
2023-07-10T13:38:53.573Z,33.15
2023-07-10T13:41:25.325Z,32.12
2023-07-10T13:43:53.844Z,34.18
2023-07-10T13:46:28.119Z,34.24
2023-07-10T13:48:57.548Z,33.09
2023-07-10T13:51:27.041Z,32.34
2023-07-10T13:53:54.676Z,31.51
2023-07-10T13:56:28.807Z,32.03
2023-07-10T13:58:56.190Z,30.43
2023-07-10T14:01:24.691Z,29.32
2023-07-10T14:03:51.786Z,27.80
2023-07-10T14:06:36.256Z,28.58
2023-07-10T14:09:16.722Z,29.04
2023-07-10T14:11:43.758Z,28.56
2023-07-10T14:14:18.980Z,29.63
2023-07-10T14:16:47.032Z,29.11
2023-07-10T14:19:18.540Z,27.76
2023-07-10T14:21:47.280Z,26.39
2023-07-10T14:24:14.378Z,26.44
2023-07-10T14:26:41.174Z,26.63
2023-07-10T14:29:09.213Z,26.77
2023-07-10T14:31:35.910Z,26.51
2023-07-10T14:34:02.596Z,27.11
2023-07-10T14:36:29.374Z,28.27
2023-07-10T14:38:56.077Z,26.67
2023-07-10T14:41:25.384Z,24.81
2023-07-10T14:43:53.146Z,24.95
2023-07-10T14:46:31.857Z,23.83
2023-07-10T14:49:05.169Z,23.30
2023-07-10T14:51:31.813Z,23.36
2023-07-10T14:53:59.371Z,22.94
2023-07-10T14:56:25.936Z,22.42
2023-07-10T14:58:52.484Z,22.35
2023-07-10T15:01:19.389Z,22.27
2023-07-10T15:03:47.771Z,22.79
2023-07-10T15:06:28.474Z,22.79
2023-07-10T15:08:55.403Z,22.64
2023-07-10T15:11:23.583Z,25.14
2023-07-10T15:13:50.852Z,26.60
2023-07-10T15:16:20.300Z,26.84
2023-07-10T15:18:48.027Z,27.01
2023-07-10T15:21:17.296Z,28.20
2023-07-10T15:23:44.174Z,26.70
2023-07-10T15:26:11.303Z,25.46
2023-07-10T15:28:38.083Z,26.03
2023-07-10T15:31:07.398Z,26.76
2023-07-10T15:33:37.633Z,29.09
2023-07-10T15:36:05.557Z,29.97
2023-07-10T15:38:37.631Z,30.04
2023-07-10T15:41:18.577Z,27.58
2023-07-10T15:43:46.705Z,24.68
2023-07-10T15:46:13.450Z,23.27
2023-07-10T15:48:40.930Z,22.73
2023-07-10T15:51:20.252Z,22.94
2023-07-10T15:53:46.832Z,23.04
2023-07-10T15:56:13.385Z,23.86
2023-07-10T15:58:40.257Z,24.26
2023-07-10T16:01:13.570Z,25.58
2023-07-10T16:03:40.225Z,27.57
2023-07-10T16:06:06.932Z,28.92
2023-07-10T16:08:37.051Z,30.31
2023-07-10T16:11:09.945Z,33.07
2023-07-10T16:13:37.085Z,34.57
2023-07-10T16:18:44.496Z,37.01
2023-07-10T16:21:14.537Z,37.37
2023-07-10T16:23:41.238Z,38.21
2023-07-10T16:26:08.279Z,38.63
2023-07-10T16:28:35.054Z,38.75
2023-07-10T16:31:01.722Z,38.46
2023-07-10T16:33:30.660Z,38.06
2023-07-10T16:35:58.127Z,38.54
2023-07-10T16:38:26.412Z,38.13
2023-07-10T16:40:56.129Z,38.78
2023-07-10T16:43:34.230Z,38.97
2023-07-10T16:46:01.859Z,38.95
2023-07-10T16:48:29.891Z,39.24
2023-07-10T16:51:01.854Z,39.31
2023-07-10T16:53:32.812Z,39.48
2023-07-10T16:56:03.005Z,40.83
2023-07-10T16:58:31.922Z,40.43
2023-07-10T17:00:59.848Z,40.04
2023-07-10T17:03:33.315Z,40.77
2023-07-10T17:06:01.186Z,40.01
2023-07-10T17:08:29.310Z,40.50
2023-07-10T17:10:59.754Z,40.33
2023-07-10T17:13:30.505Z,40.77
2023-07-10T17:15:58.024Z,41.34
2023-07-10T17:18:27.682Z,39.54
2023-07-10T17:20:56.936Z,39.93
2023-07-10T17:23:29.017Z,40.46
2023-07-10T17:25:56.585Z,41.41
2023-07-10T17:28:26.639Z,40.91
2023-07-10T17:30:55.683Z,40.80
2023-07-10T17:33:31.923Z,40.89
2023-07-10T17:35:59.009Z,40.87
2023-07-10T17:38:28.675Z,40.90
2023-07-10T17:40:55.313Z,42.48
2023-07-10T17:43:22.029Z,43.75
2023-07-10T17:45:48.757Z,41.55
2023-07-10T17:48:20.465Z,43.55
2023-07-10T17:50:48.076Z,44.01
2023-07-10T17:53:16.826Z,46.83
2023-07-10T17:55:48.429Z,51.37
2023-07-10T17:58:18.011Z,48.99
2023-07-10T18:00:46.999Z,43.68
2023-07-10T18:03:15.538Z,43.12
2023-07-10T18:05:44.305Z,49.96
2023-07-10T18:08:28.039Z,53.02
2023-07-10T18:11:02.556Z,51.17
2023-07-10T18:13:37.063Z,53.27
2023-07-10T18:16:06.832Z,53.61
2023-07-10T18:18:38.098Z,51.53
2023-07-10T18:21:25.163Z,50.50
2023-07-10T18:23:52.127Z,51.11
2023-07-10T18:26:21.057Z,52.57
2023-07-10T18:28:49.951Z,53.07
2023-07-10T18:31:25.410Z,55.30
2023-07-10T18:33:53.747Z,58.46
2023-07-10T18:36:21.368Z,58.73
2023-07-10T18:38:48.207Z,55.51
2023-07-10T18:41:26.825Z,54.86
2023-07-10T18:43:55.484Z,52.89
2023-07-10T18:46:24.657Z,51.67
2023-07-10T18:48:53.336Z,52.10
2023-07-10T18:51:27.603Z,53.69
2023-07-10T18:53:57.560Z,53.72
2023-07-10T18:56:24.316Z,57.11
2023-07-10T18:58:50.996Z,56.57
2023-07-10T19:01:21.647Z,54.16
2023-07-10T19:03:53.807Z,53.95
2023-07-10T19:06:25.630Z,53.75
2023-07-10T19:08:52.119Z,53.85
2023-07-10T19:11:19.465Z,54.25
2023-07-10T19:13:47.272Z,54.85
2023-07-10T19:16:22.464Z,56.64
2023-07-10T19:18:59.787Z,55.78
2023-07-10T19:21:28.124Z,56.68
2023-07-10T19:23:54.784Z,56.50
2023-07-10T19:26:23.858Z,54.99
2023-07-10T19:28:51.259Z,55.23
2023-07-10T19:31:21.545Z,54.96
2023-07-10T19:33:50.638Z,52.96
2023-07-10T19:36:28.648Z,53.06
2023-07-10T19:38:56.375Z,53.22
2023-07-10T19:41:24.499Z,53.05
2023-07-10T19:43:51.330Z,52.34
2023-07-10T19:46:20.841Z,52.44
2023-07-10T19:48:48.110Z,52.91
2023-07-10T19:51:15.307Z,52.94
2023-07-10T19:53:42.346Z,52.76
2023-07-10T19:56:18.636Z,52.75
2023-07-10T19:58:51.260Z,53.35
2023-07-10T20:01:19.621Z,52.87
2023-07-10T20:03:47.349Z,52.49
2023-07-10T20:06:32.789Z,52.83
2023-07-10T20:09:03.644Z,52.86
2023-07-10T20:11:30.542Z,52.73
2023-07-10T20:13:57.208Z,53.15
2023-07-10T20:16:26.922Z,55.81
2023-07-10T20:18:54.939Z,55.95
2023-07-10T20:21:22.987Z,55.98
2023-07-10T20:23:52.087Z,55.50
2023-07-10T20:26:22.078Z,54.86
2023-07-10T20:28:49.417Z,55.05
2023-07-10T20:31:19.426Z,55.22
2023-07-10T20:33:47.861Z,55.45
2023-07-10T20:36:17.710Z,55.82
2023-07-10T20:38:46.890Z,55.63
2023-07-10T20:41:16.996Z,55.75
2023-07-10T20:43:47.343Z,57.08
2023-07-10T20:46:17.863Z,57.63
2023-07-10T20:48:44.969Z,58.25
2023-07-10T20:51:25.164Z,57.46
2023-07-10T20:53:56.963Z,57.78
2023-07-10T20:56:31.692Z,58.05
2023-07-10T20:59:02.063Z,58.32
2023-07-10T21:01:30.845Z,58.73
2023-07-10T21:03:58.862Z,58.34
2023-07-10T21:06:31.413Z,58.54
2023-07-10T21:09:00.048Z,59.28
2023-07-10T21:11:29.282Z,59.65
2023-07-10T21:13:56.804Z,59.40
2023-07-10T21:16:31.707Z,59.44
2023-07-10T21:19:05.093Z,59.87
2023-07-10T21:21:31.902Z,59.78
2023-07-10T21:23:58.737Z,61.99
2023-07-10T21:26:40.722Z,62.37
2023-07-10T21:29:14.141Z,61.51
2023-07-10T21:31:40.903Z,61.78
2023-07-10T21:34:13.405Z,61.67
2023-07-10T21:36:41.117Z,61.85
2023-07-10T21:39:08.650Z,61.54
2023-07-10T21:41:40.903Z,61.72
2023-07-10T21:44:14.092Z,62.16
2023-07-10T21:47:00.095Z,61.45
2023-07-10T21:49:27.106Z,62.32
2023-07-10T21:51:53.790Z,62.31
2023-07-10T21:54:20.630Z,62.32
2023-07-10T21:56:48.107Z,62.30
2023-07-10T21:59:21.479Z,62.75
2023-07-10T22:01:49.837Z,63.17
2023-07-10T22:04:18.096Z,62.83
2023-07-10T22:06:46.399Z,63.52
2023-07-10T22:09:14.901Z,62.71
2023-07-10T22:11:43.521Z,63.59
2023-07-10T22:14:15.081Z,63.32
2023-07-10T22:16:44.670Z,63.44
2023-07-10T22:19:13.168Z,63.91
2023-07-10T22:21:41.188Z,64.70
2023-07-10T22:24:15.767Z,65.00
2023-07-10T22:26:42.440Z,66.45
2023-07-10T22:29:09.509Z,65.99
2023-07-10T22:31:41.358Z,66.56
2023-07-10T22:34:08.575Z,66.81
2023-07-10T22:36:35.469Z,67.89
2023-07-10T22:39:02.303Z,69.04
2023-07-10T22:41:33.989Z,70.11
2023-07-10T22:44:08.393Z,70.13
2023-07-10T22:46:39.428Z,70.59
2023-07-10T22:49:08.468Z,70.78
2023-07-10T22:51:38.691Z,70.43
2023-07-10T22:54:05.749Z,71.30
2023-07-10T22:56:35.499Z,71.18
2023-07-10T22:59:03.083Z,71.02
2023-07-10T23:01:30.409Z,71.13
2023-07-10T23:03:57.350Z,71.13
2023-07-10T23:06:32.783Z,70.84
2023-07-10T23:09:00.188Z,71.32
2023-07-10T23:11:27.539Z,71.16
2023-07-10T23:13:54.265Z,71.23
2023-07-10T23:16:24.968Z,72.04
2023-07-10T23:18:57.988Z,72.01
2023-07-10T23:21:26.518Z,72.46
2023-07-10T23:23:54.260Z,72.34
2023-07-10T23:26:22.626Z,72.30
2023-07-10T23:28:50.123Z,72.50
2023-07-10T23:31:23.314Z,72.59
2023-07-10T23:33:51.004Z,72.48
2023-07-10T23:36:19.182Z,73.24
2023-07-10T23:38:46.735Z,72.89
2023-07-10T23:41:14.014Z,73.15
2023-07-10T23:43:42.298Z,73.36
2023-07-10T23:46:13.083Z,74.06
2023-07-10T23:48:41.238Z,74.11
2023-07-10T23:51:08.044Z,73.62
2023-07-10T23:53:34.965Z,73.42
2023-07-10T23:56:04.877Z,73.69
2023-07-10T23:58:31.872Z,73.64
